Aeroporto :
LOGIN :

Iscrizione | Disclaimer

   EN    FR    IT 

 










Sommario :    VFR   VFR Marginale   IFR   IFR Intensivo   IFR Molto Intensivo
Visibilità : 
Base nubi : 
>= 8 km
>= 3000ft
5 / 8 km
1000 / 3000 ft
1500m / 5 km
500 / 1000 ft
800 / 1500m
200 / 500 ft
< 800m
< 200 ft
Simboli :   Temporali  Nebbia  Neve Forte  Precipitazioni Forti  Vento > 20 kt
SIGMETs :   Varie  Temporali  Ghiacco  Turbolenza  Onda orograficha  Ceneri Vulcaniche






- Altitudine del aeroporto : 82 ft
- Codice IATA : AAR


EKAH - Aarhus Tirstrup

ULTIMO METAR :
  • 231920Z AUTO 24008KT 200V270 9999 BKN043/// 07/05 Q1021

METARs OBSOLETI :
  • 231850Z AUTO 25009KT 190V280 9999 BKN044/// BKN180/// 07/05 Q1020
  • 231820Z AUTO 25007KT 190V300 9999 FEW044/// BKN190/// 07/05 Q1021
  • 231750Z AUTO 24006KT 210V280 9999 BKN170/// 07/05 Q1021
  • 231720Z AUTO 26010KT 9999 SCT038/// BKN170/// 08/05 Q1020
  • 231650Z AUTO 25007KT 210V270 9999 SCT028/// BKN041/// BKN160/// 07/05 Q1020

TAF TAF EKAH
Valido dal 23 a 18 ore il 24 a 18 ore UTC


231709Z 2318/2418 24007KT 9999 BKN025
BECMG 2404/2407 21013KT BKN012
TEMPO 2407/2412 4000 -RADZ BR
TEMPO 2412/2418 4000 -RADZ BR BKN008



MetMap, La meteo Aeronautica in un colpo d'occhio ! - Copyright ORBIFLY Dicembre 2007 - Disclaimer

ORBIFLY MET'MAP TEAM :

Programmazione e sviluppo : Alexandra Zaïnal
Concezione : Baudouin d'Aumeries
Aiuto per la programmazione : Marc-Olivier Méhu
Supporto tecnico e logistico : Manuel Goepfert
Aiuto per la traduzione : Arnaldo La Scala

Contatto : metmap@orbifly.com




FONTI E CREDITI :

   NOAA